طرابلس, ليبيا

11:09 AM EET on دسمبر 22, 2014 (GMT +0200)
Mitiga | Change Station
CLOSE
Current Station
Airport
Location: MITIGA,
Elevation: 36 ft
Nearby Weather Stations

Elev 36 ft 32.89 °N, 13.28 °E | Updated 1 hour ago

Scattered Clouds
غيوم متفرقة
66 °F
Feels Like 66 °F
N
9
ريح متغير ريح from NNE

هذا اليوم
High -- | Low -- °F
--% Chance of Precip.
Yesterday
High -- | Low -- °F
Precip. -- في
8:05 AM 6:05 PM
قمر جدید, 0% visible
الضغط 30.45 في
وضوح الرؤية 5.0 أميال
سحابات Few 2500 ft
غيوم متفرقة 6000 ft
نقطة الندى 54 °F
الرطوبة 64%
Rainfall 0.00 في
عمق الثلج Not available.
الأشعة فوق البنفسجية 1 out of 12
Pollen Not available.
جودة الهواء Not available.
Flu Activity Not available.
METAR HLLM 220750Z 02008KT 8000 FEW025 SCT060 19/12 Q1031

More Conditions Fewer Conditions

الضغط 30.45 في
وضوح الرؤية 5.0 أميال
سحابات Few 2500 ft
غيوم متفرقة 6000 ft
نقطة الندى 54 °F
الرطوبة 64%
Rainfall 0.00 في
عمق الثلج Not available.
الأشعة فوق البنفسجية 1 out of 12
Pollen Not available.
جودة الهواء Not available.
Flu Activity Not available.
METAR HLLM 220750Z 02008KT 8000 FEW025 SCT060 19/12 Q1031

More Conditions Fewer Conditions

10-Day Weather Forecast

Almanac

علم الفلك

Dec. 22, 2014 Rise Set
Actual Time
Civil Twilight
Nautical Twilight
Astronomical Twilight
قمر
Length Of Visible Light
طول الیوم
Tomorrow will be .
, % of the Moon is Illuminated

Today's Extremes

Country Highs Country Lows

Community

WunderPhotos

Upload Photos

1,779,580 photos uploaded!

WunderBlogs® & News

Nearby

جودة الهواء

  جودة الهواء AQ Index Pollutant
Not available.

عمق الثلج

Station Depth Elevation

Earthquake Activity

City Distance Mag. Time & Date
Minimum magnitude displayed is 2.5.

Coastal Water Temperatures

مكان درجات الحرارة

Nearby Weather Stations